sensor_id;sensor_type;location;lat;lon;timestamp;pressure;altitude;pressure_sealevel;temperature;humidity
15193;BME280;7697;51.630;7.484;2023-02-23T02:21:09;100472.88;;;11.16;100.00
15193;BME280;7697;51.630;7.484;2023-02-23T02:26:21;100475.91;;;11.13;100.00
15193;BME280;7697;51.630;7.484;2023-02-23T02:32:08;100470.44;;;11.08;100.00
15193;BME280;7697;51.630;7.484;2023-02-23T02:37:36;100473.28;;;11.07;100.00
15193;BME280;7697;51.630;7.484;2023-02-23T02:42:50;100472.84;;;11.10;100.00
15193;BME280;7697;51.630;7.484;2023-02-23T02:48:00;100457.38;;;11.07;100.00
15193;BME280;7697;51.630;7.484;2023-02-23T02:53:07;100465.13;;;11.08;100.00
15193;BME280;7697;51.630;7.484;2023-02-23T02:58:11;100459.22;;;11.06;100.00
15193;BME280;7697;51.630;7.484;2023-02-23T03:03:27;100462.25;;;11.03;100.00
15193;BME280;7697;51.630;7.484;2023-02-23T03:08:53;100465.53;;;11.05;100.00
15193;BME280;7697;51.630;7.484;2023-02-23T03:14:23;100467.38;;;11.05;100.00
15193;BME280;7697;51.630;7.484;2023-02-23T03:19:52;100464.72;;;11.05;100.00
15193;BME280;7697;51.630;7.484;2023-02-23T03:25:18;100467.56;;;11.03;100.00
15193;BME280;7697;51.630;7.484;2023-02-23T03:30:46;100465.34;;;11.00;100.00
15193;BME280;7697;51.630;7.484;2023-02-23T03:36:11;100465.13;;;11.02;100.00
15193;BME280;7697;51.630;7.484;2023-02-23T03:41:34;100464.72;;;10.98;100.00
15193;BME280;7697;51.630;7.484;2023-02-23T03:46:56;100470.84;;;10.99;100.00
15193;BME280;7697;51.630;7.484;2023-02-23T03:52:19;100476.16;;;10.99;100.00
15193;BME280;7697;51.630;7.484;2023-02-23T03:57:42;100470.03;;;10.98;100.00
15193;BME280;7697;51.630;7.484;2023-02-23T04:03:05;100470.81;;;10.92;100.00
15193;BME280;7697;51.630;7.484;2023-02-23T04:08:29;100467.97;;;10.87;100.00
15193;BME280;7697;51.630;7.484;2023-02-23T04:13:57;100468.81;;;10.87;100.00
15193;BME280;7697;51.630;7.484;2023-02-23T04:18:59;100476.13;;;10.85;100.00
15193;BME280;7697;51.630;7.484;2023-02-23T04:24:01;100468.19;;;10.85;100.00
15193;BME280;7697;51.630;7.484;2023-02-23T04:29:05;100481.44;;;10.85;100.00
15193;BME280;7697;51.630;7.484;2023-02-23T04:34:07;100473.69;;;10.84;100.00
15193;BME280;7697;51.630;7.484;2023-02-23T04:39:09;100477.97;;;10.85;100.00
15193;BME280;7697;51.630;7.484;2023-02-23T04:44:12;100482.25;;;10.86;100.00
15193;BME280;7697;51.630;7.484;2023-02-23T04:49:14;100486.53;;;10.87;100.00
15193;BME280;7697;51.630;7.484;2023-02-23T04:54:15;100487.53;;;10.86;100.00
15193;BME280;7697;51.630;7.484;2023-02-23T04:59:18;100484.91;;;10.86;100.00
15193;BME280;7697;51.630;7.484;2023-02-23T05:04:20;100485.50;;;10.81;100.00
15193;BME280;7697;51.630;7.484;2023-02-23T05:09:22;100486.91;;;10.84;100.00
15193;BME280;7697;51.630;7.484;2023-02-23T05:14:25;100496.94;;;10.82;100.00
15193;BME280;7697;51.630;7.484;2023-02-23T05:19:27;100502.22;;;10.82;100.00
15193;BME280;7697;51.630;7.484;2023-02-23T05:24:29;100492.84;;;10.79;100.00
15193;BME280;7697;51.630;7.484;2023-02-23T05:29:32;100494.69;;;10.79;100.00
15193;BME280;7697;51.630;7.484;2023-02-23T05:34:34;100496.69;;;10.77;100.00
15193;BME280;7697;51.630;7.484;2023-02-23T05:39:38;100494.25;;;10.75;100.00
15193;BME280;7697;51.630;7.484;2023-02-23T05:44:41;100504.25;;;10.73;100.00
15193;BME280;7697;51.630;7.484;2023-02-23T05:49:43;100499.53;;;10.69;100.00
15193;BME280;7697;51.630;7.484;2023-02-23T05:54:46;100493.63;;;10.67;100.00
15193;BME280;7697;51.630;7.484;2023-02-23T05:59:49;100492.19;;;10.58;100.00
15193;BME280;7697;51.630;7.484;2023-02-23T06:04:50;100509.72;;;10.59;100.00
15193;BME280;7697;51.630;7.484;2023-02-23T06:09:52;100503.41;;;10.53;100.00
15193;BME280;7697;51.630;7.484;2023-02-23T06:14:55;100504.84;;;10.56;100.00
15193;BME280;7697;51.630;7.484;2023-02-23T06:19:57;100507.06;;;10.52;100.00
15193;BME280;7697;51.630;7.484;2023-02-23T06:25:01;100509.50;;;10.53;100.00
15193;BME280;7697;51.630;7.484;2023-02-23T06:30:06;100521.75;;;10.55;100.00
15193;BME280;7697;51.630;7.484;2023-02-23T06:35:09;100527.63;;;10.57;100.00
15193;BME280;7697;51.630;7.484;2023-02-23T06:40:11;100523.56;;;10.54;100.00
15193;BME280;7697;51.630;7.484;2023-02-23T06:45:15;100538.03;;;10.58;100.00
15193;BME280;7697;51.630;7.484;2023-02-23T06:50:17;100547.41;;;10.54;100.00
15193;BME280;7697;51.630;7.484;2023-02-23T06:55:19;100540.03;;;10.43;100.00
15193;BME280;7697;51.630;7.484;2023-02-23T07:00:23;100547.53;;;10.39;100.00
15193;BME280;7697;51.630;7.484;2023-02-23T07:05:24;100551.81;;;10.40;100.00
15193;BME280;7697;51.630;7.484;2023-02-23T07:10:26;100555.03;;;10.29;100.00
15193;BME280;7697;51.630;7.484;2023-02-23T07:15:33;100559.94;;;10.26;100.00
15193;BME280;7697;51.630;7.484;2023-02-23T07:20:35;100574.56;;;10.22;100.00
15193;BME280;7697;51.630;7.484;2023-02-23T07:25:37;100566.00;;;10.20;100.00
15193;BME280;7697;51.630;7.484;2023-02-23T07:30:40;100575.59;;;10.27;100.00
15193;BME280;7697;51.630;7.484;2023-02-23T07:35:42;100565.78;;;10.21;100.00
15193;BME280;7697;51.630;7.484;2023-02-23T07:40:44;100583.13;;;10.24;100.00
15193;BME280;7697;51.630;7.484;2023-02-23T07:45:47;100593.91;;;10.22;100.00
15193;BME280;7697;51.630;7.484;2023-02-23T07:50:50;100592.47;;;10.20;100.00
15193;BME280;7697;51.630;7.484;2023-02-23T07:55:55;100591.00;;;10.17;100.00
15193;BME280;7697;51.630;7.484;2023-02-23T08:00:59;100607.56;;;10.26;100.00
15193;BME280;7697;51.630;7.484;2023-02-23T08:06:01;100601.06;;;10.28;100.00
15193;BME280;7697;51.630;7.484;2023-02-23T08:11:04;100617.78;;;10.35;100.00
15193;BME280;7697;51.630;7.484;2023-02-23T08:16:07;100610.41;;;10.24;100.00
15193;BME280;7697;51.630;7.484;2023-02-23T08:21:11;100622.44;;;10.27;100.00
15193;BME280;7697;51.630;7.484;2023-02-23T08:26:13;100617.53;;;10.24;100.00
15193;BME280;7697;51.630;7.484;2023-02-23T08:31:16;100634.03;;;10.26;100.00
15193;BME280;7697;51.630;7.484;2023-02-23T08:36:21;100617.38;;;10.04;100.00
15193;BME280;7697;51.630;7.484;2023-02-23T08:41:23;100622.91;;;10.09;100.00
15193;BME280;7697;51.630;7.484;2023-02-23T08:46:26;100632.50;;;10.10;100.00
15193;BME280;7697;51.630;7.484;2023-02-23T08:51:28;100622.44;;;9.99;100.00
15193;BME280;7697;51.630;7.484;2023-02-23T08:56:30;100632.66;;;10.02;100.00
15193;BME280;7697;51.630;7.484;2023-02-23T09:01:33;100637.56;;;10.11;100.00
15193;BME280;7697;51.630;7.484;2023-02-23T09:06:36;100636.16;;;10.09;100.00
15193;BME280;7697;51.630;7.484;2023-02-23T09:11:38;100648.94;;;10.05;100.00
15193;BME280;7697;51.630;7.484;2023-02-23T09:16:42;100640.59;;;10.02;100.00
15193;BME280;7697;51.630;7.484;2023-02-23T09:21:44;100656.88;;;10.05;100.00
15193;BME280;7697;51.630;7.484;2023-02-23T09:26:46;100646.25;;;9.99;100.00
15193;BME280;7697;51.630;7.484;2023-02-23T09:31:51;100650.34;;;10.01;100.00
15193;BME280;7697;51.630;7.484;2023-02-23T09:36:59;100665.63;;;10.06;100.00
15193;BME280;7697;51.630;7.484;2023-02-23T09:42:29;100648.91;;;9.99;100.00
15193;BME280;7697;51.630;7.484;2023-02-23T09:47:47;100656.25;;;10.03;100.00
15193;BME280;7697;51.630;7.484;2023-02-23T09:53:03;100659.97;;;10.09;100.00
15193;BME280;7697;51.630;7.484;2023-02-23T10:08:55;100687.25;;;10.09;100.00
15193;BME280;7697;51.630;7.484;2023-02-23T10:14:22;100689.00;;;10.02;100.00
15193;BME280;7697;51.630;7.484;2023-02-23T10:19:36;100682.28;;;10.00;100.00
15193;BME280;7697;51.630;7.484;2023-02-23T10:24:55;100686.81;;;10.06;100.00
15193;BME280;7697;51.630;7.484;2023-02-23T10:30:03;100687.63;;;10.06;100.00
15193;BME280;7697;51.630;7.484;2023-02-23T10:35:15;100694.56;;;10.07;100.00
15193;BME280;7697;51.630;7.484;2023-02-23T10:40:22;100700.16;;;10.19;100.00
15193;BME280;7697;51.630;7.484;2023-02-23T10:45:25;100678.53;;;10.15;100.00
15193;BME280;7697;51.630;7.484;2023-02-23T10:50:29;100696.28;;;10.22;100.00
15193;BME280;7697;51.630;7.484;2023-02-23T10:55:32;100701.84;;;10.27;100.00
15193;BME280;7697;51.630;7.484;2023-02-23T11:00:36;100692.22;;;10.19;100.00
15193;BME280;7697;51.630;7.484;2023-02-23T11:05:44;100702.94;;;10.11;100.00
15193;BME280;7697;51.630;7.484;2023-02-23T11:11:02;100703.69;;;10.05;100.00
15193;BME280;7697;51.630;7.484;2023-02-23T11:16:08;100702.03;;;10.04;100.00
15193;BME280;7697;51.630;7.484;2023-02-23T11:21:13;100702.31;;;10.09;100.00
15193;BME280;7697;51.630;7.484;2023-02-23T11:26:36;100706.13;;;10.06;100.00
15193;BME280;7697;51.630;7.484;2023-02-23T11:31:40;100704.31;;;10.07;100.00
15193;BME280;7697;51.630;7.484;2023-02-23T11:36:57;100705.41;;;9.91;100.00
15193;BME280;7697;51.630;7.484;2023-02-23T11:42:15;100693.53;;;9.81;100.00
15193;BME280;7697;51.630;7.484;2023-02-23T11:47:20;100690.25;;;9.78;100.00
15193;BME280;7697;51.630;7.484;2023-02-23T11:52:24;100695.13;;;9.75;100.00
15193;BME280;7697;51.630;7.484;2023-02-23T11:57:31;100700.41;;;9.75;100.00
15193;BME280;7697;51.630;7.484;2023-02-23T12:02:45;100680.41;;;9.66;100.00
15193;BME280;7697;51.630;7.484;2023-02-23T12:07:54;100692.25;;;9.76;100.00
15193;BME280;7697;51.630;7.484;2023-02-23T12:13:02;100692.25;;;9.76;100.00
15193;BME280;7697;51.630;7.484;2023-02-23T12:18:14;100689.88;;;9.82;100.00
15193;BME280;7697;51.630;7.484;2023-02-23T12:23:21;100685.91;;;9.92;100.00
15193;BME280;7697;51.630;7.484;2023-02-23T12:28:31;100691.59;;;9.96;100.00
15193;BME280;7697;51.630;7.484;2023-02-23T12:33:37;100687.88;;;9.84;100.00
15193;BME280;7697;51.630;7.484;2023-02-23T12:38:48;100687.41;;;9.80;100.00
15193;BME280;7697;51.630;7.484;2023-02-23T12:43:56;100693.09;;;9.77;100.00
15193;BME280;7697;51.630;7.484;2023-02-23T12:49:05;100705.50;;;9.76;100.00
15193;BME280;7697;51.630;7.484;2023-02-23T12:54:14;100696.63;;;9.63;100.00
15193;BME280;7697;51.630;7.484;2023-02-23T12:59:31;100695.59;;;9.57;100.00
15193;BME280;7697;51.630;7.484;2023-02-23T13:04:47;100694.25;;;9.47;100.00
15193;BME280;7697;51.630;7.484;2023-02-23T13:10:00;100696.94;;;9.53;100.00
15193;BME280;7697;51.630;7.484;2023-02-23T13:15:18;100697.41;;;9.57;100.00
15193;BME280;7697;51.630;7.484;2023-02-23T13:20:25;100705.00;;;9.66;100.00
15193;BME280;7697;51.630;7.484;2023-02-23T13:25:36;100698.09;;;9.65;100.00
15193;BME280;7697;51.630;7.484;2023-02-23T13:30:41;100708.44;;;9.67;100.00
15193;BME280;7697;51.630;7.484;2023-02-23T13:35:46;100710.84;;;9.62;100.00
15193;BME280;7697;51.630;7.484;2023-02-23T13:40:51;100714.97;;;9.64;100.00
15193;BME280;7697;51.630;7.484;2023-02-23T13:46:10;100725.09;;;9.61;100.00
15193;BME280;7697;51.630;7.484;2023-02-23T13:51:20;100712.03;;;9.59;100.00
15193;BME280;7697;51.630;7.484;2023-02-23T13:56:27;100716.97;;;9.62;100.00
15193;BME280;7697;51.630;7.484;2023-02-23T14:01:37;100711.19;;;9.52;100.00
15193;BME280;7697;51.630;7.484;2023-02-23T14:06:49;100715.22;;;9.48;100.00
15193;BME280;7697;51.630;7.484;2023-02-23T14:12:00;100719.47;;;9.49;100.00
15193;BME280;7697;51.630;7.484;2023-02-23T14:23:16;100730.31;;;9.54;100.00
15193;BME280;7697;51.630;7.484;2023-02-23T14:28:32;100735.16;;;9.51;100.00
15193;BME280;7697;51.630;7.484;2023-02-23T14:33:37;100731.50;;;9.52;100.00
15193;BME280;7697;51.630;7.484;2023-02-23T14:38:57;100732.31;;;9.52;100.00
15193;BME280;7697;51.630;7.484;2023-02-23T14:44:05;100721.50;;;9.47;100.00
15193;BME280;7697;51.630;7.484;2023-02-23T14:49:09;100717.22;;;9.46;100.00
15193;BME280;7697;51.630;7.484;2023-02-23T14:54:29;100728.44;;;9.48;100.00
15193;BME280;7697;51.630;7.484;2023-02-23T14:59:36;100718.88;;;9.47;100.00
15193;BME280;7697;51.630;7.484;2023-02-23T15:04:38;100718.41;;;9.44;100.00
15193;BME280;7697;51.630;7.484;2023-02-23T15:09:43;100730.03;;;9.49;100.00
15193;BME280;7697;51.630;7.484;2023-02-23T15:14:47;100732.31;;;9.52;100.00
15193;BME280;7697;51.630;7.484;2023-02-23T15:19:53;100729.22;;;9.49;100.00
15193;BME280;7697;51.630;7.484;2023-02-23T15:24:59;100736.09;;;9.43;100.00
15193;BME280;7697;51.630;7.484;2023-02-23T15:30:16;100742.38;;;9.42;100.00
15193;BME280;7697;51.630;7.484;2023-02-23T15:35:19;100748.75;;;9.48;100.00
15193;BME280;7697;51.630;7.484;2023-02-23T15:40:23;100737.56;;;9.46;100.00
15193;BME280;7697;51.630;7.484;2023-02-23T15:45:33;100738.38;;;9.46;100.00
15193;BME280;7697;51.630;7.484;2023-02-23T15:50:40;100733.81;;;9.40;100.00
15193;BME280;7697;51.630;7.484;2023-02-23T15:55:46;100727.00;;;9.31;100.00
15193;BME280;7697;51.630;7.484;2023-02-23T16:00:49;100717.00;;;9.26;100.00
15193;BME280;7697;51.630;7.484;2023-02-23T16:05:59;100737.03;;;9.35;100.00
15193;BME280;7697;51.630;7.484;2023-02-23T16:11:08;100716.19;;;9.26;100.00
15193;BME280;7697;51.630;7.484;2023-02-23T16:16:13;100713.78;;;9.31;100.00
15193;BME280;7697;51.630;7.484;2023-02-23T16:21:20;100724.81;;;9.34;100.00
15193;BME280;7697;51.630;7.484;2023-02-23T16:26:27;100728.66;;;9.32;100.00
15193;BME280;7697;51.630;7.484;2023-02-23T16:31:41;100729.94;;;9.36;100.00
15193;BME280;7697;51.630;7.484;2023-02-23T16:36:48;100734.56;;;9.34;100.00
15193;BME280;7697;51.630;7.484;2023-02-23T16:41:51;100729.56;;;9.39;100.00
15193;BME280;7697;51.630;7.484;2023-02-23T16:47:09;100723.25;;;9.40;100.00
15193;BME280;7697;51.630;7.484;2023-02-23T16:52:15;100720.59;;;9.40;100.00
15193;BME280;7697;51.630;7.484;2023-02-23T16:57:22;100723.63;;;9.37;100.00
15193;BME280;7697;51.630;7.484;2023-02-23T17:02:25;100721.25;;;9.42;100.00
15193;BME280;7697;51.630;7.484;2023-02-23T17:07:26;100735.44;;;9.41;100.00
15193;BME280;7697;51.630;7.484;2023-02-23T17:12:32;100740.84;;;9.33;100.00
15193;BME280;7697;51.630;7.484;2023-02-23T17:17:33;100756.72;;;9.33;100.00
15193;BME280;7697;51.630;7.484;2023-02-23T17:22:35;100745.44;;;9.24;100.00
15193;BME280;7697;51.630;7.484;2023-02-23T17:27:39;100753.66;;;9.29;100.00
15193;BME280;7697;51.630;7.484;2023-02-23T17:32:40;100758.28;;;9.27;100.00
15193;BME280;7697;51.630;7.484;2023-02-23T17:37:42;100772.88;;;9.23;100.00
15193;BME280;7697;51.630;7.484;2023-02-23T17:42:46;100768.78;;;9.21;100.00
15193;BME280;7697;51.630;7.484;2023-02-23T17:47:47;100775.44;;;9.17;100.00
15193;BME280;7697;51.630;7.484;2023-02-23T17:52:50;100787.56;;;9.11;100.00
15193;BME280;7697;51.630;7.484;2023-02-23T17:57:53;100777.53;;;9.07;100.00
15193;BME280;7697;51.630;7.484;2023-02-23T18:02:55;100781.56;;;9.02;100.00
15193;BME280;7697;51.630;7.484;2023-02-23T18:07:57;100785.13;;;9.10;100.00
15193;BME280;7697;51.630;7.484;2023-02-23T18:13:00;100770.44;;;9.07;100.00
15193;BME280;7697;51.630;7.484;2023-02-23T18:18:01;100774.38;;;9.11;100.00
15193;BME280;7697;51.630;7.484;2023-02-23T18:23:03;100766.97;;;9.07;100.00
15193;BME280;7697;51.630;7.484;2023-02-23T18:28:06;100778.19;;;9.09;100.00
15193;BME280;7697;51.630;7.484;2023-02-23T18:33:09;100775.28;;;9.03;100.00
15193;BME280;7697;51.630;7.484;2023-02-23T18:38:12;100789.50;;;9.02;100.00
15193;BME280;7697;51.630;7.484;2023-02-23T18:43:16;100776.66;;;8.99;100.00
15193;BME280;7697;51.630;7.484;2023-02-23T18:48:18;100778.13;;;9.02;100.00
15193;BME280;7697;51.630;7.484;2023-02-23T18:53:19;100776.00;;;9.12;100.00
15193;BME280;7697;51.630;7.484;2023-02-23T18:58:22;100779.25;;;9.14;100.00
15193;BME280;7697;51.630;7.484;2023-02-23T19:03:24;100779.72;;;9.18;100.00
15193;BME280;7697;51.630;7.484;2023-02-23T19:08:26;100779.38;;;9.21;100.00
15193;BME280;7697;51.630;7.484;2023-02-23T19:13:31;100761.97;;;9.12;100.00
15193;BME280;7697;51.630;7.484;2023-02-23T19:18:33;100764.88;;;9.17;100.00
15193;BME280;7697;51.630;7.484;2023-02-23T19:23:36;100760.59;;;9.16;100.00
15193;BME280;7697;51.630;7.484;2023-02-23T19:28:39;100761.88;;;9.20;100.00
15193;BME280;7697;51.630;7.484;2023-02-23T19:33:42;100762.88;;;9.19;100.00
15193;BME280;7697;51.630;7.484;2023-02-23T19:38:44;100757.94;;;9.16;100.00
15193;BME280;7697;51.630;7.484;2023-02-23T19:43:48;100771.72;;;9.11;100.00
15193;BME280;7697;51.630;7.484;2023-02-23T19:48:50;100766.38;;;8.90;100.00
15193;BME280;7697;51.630;7.484;2023-02-23T19:53:52;100767.38;;;8.89;100.00
15193;BME280;7697;51.630;7.484;2023-02-23T19:58:58;100766.19;;;8.91;100.00
15193;BME280;7697;51.630;7.484;2023-02-23T20:04:03;100768.72;;;8.99;100.00
15193;BME280;7697;51.630;7.484;2023-02-23T20:09:07;100771.84;;;9.03;100.00
15193;BME280;7697;51.630;7.484;2023-02-23T20:14:10;100773.00;;;9.00;100.00
15193;BME280;7697;51.630;7.484;2023-02-23T20:19:12;100771.00;;;9.02;100.00
15193;BME280;7697;51.630;7.484;2023-02-23T20:24:14;100774.47;;;9.03;100.00
15193;BME280;7697;51.630;7.484;2023-02-23T20:29:17;100791.41;;;9.09;100.00
15193;BME280;7697;51.630;7.484;2023-02-23T20:34:21;100779.66;;;8.96;100.00
15193;BME280;7697;51.630;7.484;2023-02-23T20:39:24;100782.28;;;8.96;100.00
15193;BME280;7697;51.630;7.484;2023-02-23T20:44:27;100783.38;;;8.87;100.00
15193;BME280;7697;51.630;7.484;2023-02-23T20:49:30;100778.66;;;8.39;100.00
15193;BME280;7697;51.630;7.484;2023-02-23T20:54:32;100783.84;;;8.24;100.00
15193;BME280;7697;51.630;7.484;2023-02-23T20:59:35;100791.00;;;8.15;100.00
15193;BME280;7697;51.630;7.484;2023-02-23T21:04:37;100769.13;;;7.92;100.00
15193;BME280;7697;51.630;7.484;2023-02-23T21:09:40;100768.53;;;7.82;100.00
15193;BME280;7697;51.630;7.484;2023-02-23T21:14:45;100776.19;;;7.77;100.00
15193;BME280;7697;51.630;7.484;2023-02-23T21:19:47;100774.88;;;7.73;100.00
15193;BME280;7697;51.630;7.484;2023-02-23T21:24:49;100763.41;;;7.66;100.00
15193;BME280;7697;51.630;7.484;2023-02-23T21:29:52;100768.06;;;7.56;100.00
15193;BME280;7697;51.630;7.484;2023-02-23T21:34:54;100773.81;;;7.59;100.00
15193;BME280;7697;51.630;7.484;2023-02-23T21:39:56;100780.91;;;7.59;100.00
15193;BME280;7697;51.630;7.484;2023-02-23T21:44:59;100770.59;;;7.49;100.00
15193;BME280;7697;51.630;7.484;2023-02-23T21:50:01;100787.88;;;7.51;100.00
15193;BME280;7697;51.630;7.484;2023-02-23T21:55:03;100779.97;;;7.51;100.00
15193;BME280;7697;51.630;7.484;2023-02-23T22:00:08;100778.94;;;7.52;100.00
15193;BME280;7697;51.630;7.484;2023-02-23T22:05:11;100766.81;;;7.43;100.00
15193;BME280;7697;51.630;7.484;2023-02-23T22:10:13;100771.63;;;7.40;100.00
15193;BME280;7697;51.630;7.484;2023-02-23T22:15:16;100769.72;;;7.26;100.00
15193;BME280;7697;51.630;7.484;2023-02-23T22:20:18;100764.03;;;7.14;100.00
15193;BME280;7697;51.630;7.484;2023-02-23T22:25:20;100775.56;;;7.13;100.00
15193;BME280;7697;51.630;7.484;2023-02-23T22:30:23;100775.03;;;7.18;100.00
15193;BME280;7697;51.630;7.484;2023-02-23T22:35:25;100776.06;;;7.08;100.00
15193;BME280;7697;51.630;7.484;2023-02-23T22:40:26;100778.53;;;7.10;100.00
15193;BME280;7697;51.630;7.484;2023-02-23T22:45:30;100772.31;;;7.03;100.00
15193;BME280;7697;51.630;7.484;2023-02-23T22:50:32;100771.00;;;6.99;100.00
15193;BME280;7697;51.630;7.484;2023-02-23T22:55:34;100773.16;;;6.95;100.00
15193;BME280;7697;51.630;7.484;2023-02-23T23:00:37;100760.50;;;6.91;100.00
15193;BME280;7697;51.630;7.484;2023-02-23T23:05:39;100743.97;;;6.74;100.00
15193;BME280;7697;51.630;7.484;2023-02-23T23:10:40;100756.25;;;6.82;100.00
15193;BME280;7697;51.630;7.484;2023-02-23T23:15:45;100770.56;;;6.87;100.00
15193;BME280;7697;51.630;7.484;2023-02-23T23:20:46;100748.75;;;6.70;100.00
15193;BME280;7697;51.630;7.484;2023-02-23T23:25:49;100753.00;;;6.71;100.00
15193;BME280;7697;51.630;7.484;2023-02-23T23:30:52;100744.44;;;6.77;100.00
15193;BME280;7697;51.630;7.484;2023-02-23T23:35:55;100754.00;;;6.78;100.00
15193;BME280;7697;51.630;7.484;2023-02-23T23:40:57;100749.06;;;6.75;100.00
15193;BME280;7697;51.630;7.484;2023-02-23T23:46:11;100727.38;;;6.65;100.00
15193;BME280;7697;51.630;7.484;2023-02-23T23:51:14;100727.69;;;6.78;100.00
15193;BME280;7697;51.630;7.484;2023-02-23T23:56:15;100726.66;;;6.88;100.00
